createdAt,value
2023-04-09T00:04:19.653Z,6.40
2023-04-09T00:09:25.132Z,6.50
2023-04-09T00:14:31.297Z,6.50
2023-04-09T00:19:37.588Z,6.60
2023-04-09T00:24:42.884Z,6.60
2023-04-09T00:29:48.156Z,6.60
2023-04-09T00:34:53.810Z,6.60
2023-04-09T00:39:59.600Z,6.50
2023-04-09T00:45:11.144Z,6.50
2023-04-09T00:50:18.330Z,6.50
2023-04-09T00:55:27.760Z,6.50
2023-04-09T01:00:32.867Z,6.50
2023-04-09T01:05:43.572Z,6.50
2023-04-09T01:10:54.840Z,6.60
2023-04-09T01:16:02.844Z,6.60
2023-04-09T01:21:14.621Z,6.70
2023-04-09T01:26:22.946Z,6.70
2023-04-09T01:31:36.898Z,6.70
2023-04-09T01:36:44.316Z,6.70
2023-04-09T01:41:51.505Z,6.70
2023-04-09T01:46:59.626Z,6.70
2023-04-09T01:52:05.141Z,6.70
2023-04-09T01:57:10.417Z,6.70
2023-04-09T02:02:21.386Z,6.70
2023-04-09T02:07:35.546Z,6.70
2023-04-09T02:12:43.541Z,6.80
2023-04-09T02:17:49.380Z,6.80
2023-04-09T02:22:54.807Z,6.80
2023-04-09T02:28:00.079Z,6.80
2023-04-09T02:33:05.505Z,6.70
2023-04-09T02:38:12.844Z,6.60
2023-04-09T02:43:18.181Z,6.60
2023-04-09T02:48:23.421Z,6.50
2023-04-09T02:53:28.680Z,6.50
2023-04-09T02:58:33.853Z,6.40
2023-04-09T03:03:40.862Z,6.40
2023-04-09T03:08:46.216Z,6.30
2023-04-09T03:13:51.577Z,6.20
2023-04-09T03:18:57.386Z,6.20
2023-04-09T03:24:02.435Z,6.20
2023-04-09T03:29:08.173Z,6.10
2023-04-09T03:34:13.218Z,6.10
2023-04-09T03:39:18.538Z,6.10
2023-04-09T03:44:24.062Z,6.20
2023-04-09T03:49:29.227Z,6.20
2023-04-09T03:54:34.565Z,6.20
2023-04-09T03:59:39.810Z,6.20
2023-04-09T04:04:45.081Z,6.20
2023-04-09T04:09:50.368Z,6.10
2023-04-09T04:14:55.796Z,6.10
2023-04-09T04:20:01.328Z,6.20
2023-04-09T04:25:07.095Z,6.30
2023-04-09T04:30:12.300Z,6.30
2023-04-09T04:35:17.547Z,6.30
2023-04-09T04:40:22.861Z,6.30
2023-04-09T04:45:28.849Z,6.40
2023-04-09T04:50:34.435Z,6.40
2023-04-09T04:55:40.557Z,6.40
2023-04-09T05:00:46.143Z,6.40
2023-04-09T05:05:51.340Z,6.40
2023-04-09T05:10:56.620Z,6.50
2023-04-09T05:16:01.802Z,6.60
2023-04-09T05:21:07.633Z,6.70
2023-04-09T05:26:12.830Z,6.80
2023-04-09T05:31:18.031Z,6.70
2023-04-09T05:36:23.467Z,6.80
2023-04-09T05:41:28.635Z,6.80
2023-04-09T05:46:34.129Z,6.90
2023-04-09T05:51:39.280Z,7.00
2023-04-09T05:56:47.246Z,7.00
2023-04-09T06:01:55.288Z,7.00
2023-04-09T06:07:00.631Z,7.10
2023-04-09T06:12:14.686Z,7.10
2023-04-09T06:17:20.024Z,7.20
2023-04-09T06:22:26.836Z,7.20
2023-04-09T06:27:31.996Z,7.30
2023-04-09T06:32:46.908Z,7.40
2023-04-09T06:37:44.197Z,7.40
2023-04-09T06:42:49.510Z,7.50
2023-04-09T06:47:55.895Z,7.50
2023-04-09T06:53:04.910Z,7.60
2023-04-09T06:58:10.198Z,7.60
2023-04-09T07:03:16.253Z,7.60
2023-04-09T07:08:23.050Z,7.70
2023-04-09T07:18:33.640Z,7.90
2023-04-09T07:23:39.313Z,8.00
2023-04-09T07:28:45.600Z,8.10
2023-04-09T07:33:52.017Z,8.10
2023-04-09T07:38:57.277Z,8.10
2023-04-09T07:44:03.990Z,8.10
2023-04-09T07:49:09.350Z,8.10
2023-04-09T07:54:14.459Z,8.10
2023-04-09T07:59:20.236Z,8.20
2023-04-09T08:04:26.027Z,8.10
2023-04-09T08:09:31.348Z,8.20
2023-04-09T08:14:37.937Z,8.30
2023-04-09T08:19:48.677Z,8.40
2023-04-09T08:25:23.744Z,8.50
2023-04-09T08:30:37.495Z,8.60
2023-04-09T08:36:03.380Z,8.80
2023-04-09T08:41:15.986Z,8.90
2023-04-09T08:46:21.454Z,9.00
2023-04-09T08:51:29.040Z,9.20
2023-04-09T08:56:34.328Z,9.30
2023-04-09T09:01:39.570Z,9.50
2023-04-09T09:06:47.259Z,9.70
2023-04-09T09:11:53.792Z,9.70
2023-04-09T09:17:06.898Z,9.70
2023-04-09T09:22:22.206Z,9.80
2023-04-09T09:27:42.686Z,10.00
2023-04-09T09:32:49.080Z,10.10
2023-04-09T09:38:11.829Z,10.20
2023-04-09T09:43:32.718Z,10.20
2023-04-09T09:48:39.055Z,10.40
2023-04-09T09:53:50.161Z,10.60
2023-04-09T09:59:07.876Z,10.70
2023-04-09T10:04:38.585Z,10.90
2023-04-09T10:09:56.304Z,11.20
2023-04-09T10:15:07.688Z,11.40
2023-04-09T10:20:27.260Z,11.70
2023-04-09T10:25:34.657Z,11.70
2023-04-09T10:30:40.281Z,12.30
2023-04-09T10:35:49.531Z,12.40
2023-04-09T10:40:54.919Z,12.50
2023-04-09T10:46:02.352Z,12.60
2023-04-09T10:51:09.752Z,12.80
2023-04-09T10:56:19.551Z,12.70
2023-04-09T11:01:26.704Z,13.10
2023-04-09T11:06:32.921Z,13.10
2023-04-09T11:11:38.233Z,13.20
2023-04-09T11:16:43.567Z,13.00
2023-04-09T11:21:49.797Z,13.50
2023-04-09T11:26:56.966Z,14.10
2023-04-09T11:32:03.293Z,14.30
2023-04-09T11:37:10.097Z,14.20
2023-04-09T11:42:16.318Z,14.30
2023-04-09T11:47:22.660Z,14.40
2023-04-09T11:52:30.522Z,14.70
2023-04-09T11:57:47.899Z,15.00
2023-04-09T12:03:04.668Z,15.20
2023-04-09T12:08:10.946Z,14.80
2023-04-09T12:13:16.841Z,14.70
2023-04-09T12:18:23.694Z,14.90
2023-04-09T12:23:30.630Z,14.70
2023-04-09T12:28:35.898Z,14.80
2023-04-09T12:33:41.745Z,15.00
2023-04-09T12:38:47.032Z,14.90
2023-04-09T12:44:04.659Z,15.00
2023-04-09T12:49:09.429Z,15.20
2023-04-09T12:54:17.613Z,14.80
2023-04-09T12:59:22.833Z,14.60
2023-04-09T13:04:28.177Z,14.50
2023-04-09T13:09:33.433Z,14.80
2023-04-09T13:14:40.657Z,14.80
2023-04-09T13:19:46.167Z,14.90
2023-04-09T13:24:52.930Z,14.40
2023-04-09T13:29:58.139Z,14.40
2023-04-09T13:35:03.637Z,14.40
2023-04-09T13:40:11.384Z,13.90
2023-04-09T13:45:16.834Z,14.10
2023-04-09T13:50:22.572Z,14.00
2023-04-09T13:55:27.928Z,13.90
2023-04-09T14:00:36.469Z,13.70
2023-04-09T14:05:42.503Z,13.20
2023-04-09T14:10:48.727Z,13.40
2023-04-09T14:15:53.949Z,13.40
2023-04-09T14:21:00.153Z,13.40
2023-04-09T14:26:06.271Z,13.10
2023-04-09T14:31:11.364Z,12.90
2023-04-09T14:36:17.103Z,12.80
2023-04-09T14:41:22.457Z,12.90
2023-04-09T14:46:27.775Z,12.80
2023-04-09T14:51:33.133Z,12.70
2023-04-09T14:56:39.524Z,12.90
2023-04-09T15:01:44.880Z,13.00
2023-04-09T15:06:50.175Z,12.80
2023-04-09T15:11:56.200Z,12.90
2023-04-09T15:17:01.406Z,13.10
2023-04-09T15:22:07.590Z,13.30
2023-04-09T15:27:20.973Z,13.20
2023-04-09T15:32:26.930Z,13.30
2023-04-09T15:37:35.499Z,13.40
2023-04-09T15:42:40.717Z,13.30
2023-04-09T15:47:46.678Z,13.20
2023-04-09T15:52:52.071Z,13.10
2023-04-09T15:57:59.984Z,13.00
2023-04-09T16:03:05.466Z,12.90
2023-04-09T16:08:11.776Z,12.70
2023-04-09T16:13:17.017Z,12.70
2023-04-09T16:18:28.063Z,12.50
2023-04-09T16:23:33.693Z,12.30
2023-04-09T16:28:43.850Z,12.10
2023-04-09T16:33:49.122Z,12.10
2023-04-09T16:38:54.627Z,12.00
2023-04-09T16:44:01.143Z,11.80
2023-04-09T16:49:07.859Z,11.70
2023-04-09T16:54:13.594Z,11.50
2023-04-09T16:59:20.510Z,11.40
2023-04-09T17:04:25.700Z,11.20
2023-04-09T17:09:31.868Z,11.00
2023-04-09T17:14:49.741Z,10.90
2023-04-09T17:19:50.532Z,10.70
2023-04-09T17:24:55.892Z,10.60
2023-04-09T17:30:21.935Z,10.40
2023-04-09T17:35:37.121Z,10.20
2023-04-09T17:41:02.673Z,10.00
2023-04-09T17:46:12.287Z,9.90
2023-04-09T17:51:37.214Z,9.70
2023-04-09T17:56:42.595Z,9.60
2023-04-09T18:01:47.861Z,9.50
2023-04-09T18:06:56.127Z,9.40
2023-04-09T18:12:02.860Z,9.40
2023-04-09T18:17:08.389Z,9.30
2023-04-09T18:22:14.095Z,9.20
2023-04-09T18:27:19.271Z,9.20
2023-04-09T18:32:25.683Z,9.00
2023-04-09T18:37:31.590Z,8.90
2023-04-09T18:42:37.276Z,8.70
2023-04-09T18:47:42.971Z,8.60
2023-04-09T18:52:48.178Z,8.50
2023-04-09T18:57:53.939Z,8.50
2023-04-09T19:02:59.259Z,8.40
2023-04-09T19:19:20.877Z,8.10
2023-04-09T19:29:55.129Z,8.10
2023-04-09T19:41:31.013Z,8.10
2023-04-09T19:46:42.664Z,8.30
2023-04-09T19:52:09.639Z,8.30
2023-04-09T19:57:37.952Z,8.40
2023-04-09T20:02:49.360Z,8.30
2023-04-09T20:07:56.767Z,8.30
2023-04-09T20:13:06.981Z,8.30
2023-04-09T20:18:18.679Z,8.10
2023-04-09T20:23:29.986Z,8.00
2023-04-09T20:28:35.583Z,8.00
2023-04-09T20:34:02.035Z,7.90
2023-04-09T20:45:02.168Z,7.80
2023-04-09T21:01:19.977Z,7.60
2023-04-09T21:17:37.300Z,7.50
2023-04-09T21:23:22.124Z,7.40
2023-04-09T21:40:47.924Z,6.90
2023-04-09T21:46:15.266Z,6.70
2023-04-09T21:51:47.196Z,6.60
2023-04-09T21:57:15.804Z,6.60
2023-04-09T22:08:56.689Z,6.40
2023-04-09T22:14:21.091Z,6.30
2023-04-09T22:32:04.569Z,6.00
2023-04-09T22:37:11.412Z,6.00
2023-04-09T22:42:54.549Z,6.00
2023-04-09T22:48:40.720Z,5.80
2023-04-09T22:59:19.972Z,5.60
2023-04-09T23:05:04.189Z,5.70
2023-04-09T23:22:07.543Z,5.60
2023-04-09T23:38:29.336Z,5.50
2023-04-09T23:49:58.878Z,5.20
2023-04-09T23:55:24.101Z,5.10
